Time;durP1;ratioP1;P1;durP2;ratioP2;P2;SDS_P1;SDS_P2;PMS_P1;PMS_P2;Temp;Humidity;BMP_temperature;BMP_pressure;BME280_temperature;BME280_humidity;BME280_pressure;Samples;Min_cycle;Max_cycle;Signal;HPM_P1;HPM_P2
2022/07/08 00:01:37;;;;;;;6.88;2.50;;;;;;;19.51;nan;100484.59;5025045;28;20066;-74
2022/07/08 00:04:02;;;;;;;3.47;2.25;;;;;;;19.51;nan;100492.63;5023511;28;20029;-74
2022/07/08 00:06:28;;;;;;;7.72;2.33;;;;;;;;;;5018779;28;20022;-74
2022/07/08 00:08:54;;;;;;;8.23;2.47;;;;;;;19.46;nan;100487.31;5021095;28;20030;-75
2022/07/08 00:11:20;;;;;;;8.50;2.40;;;;;;;19.47;nan;100488.94;5027438;28;20021;-74
2022/07/08 00:13:45;;;;;;;4.88;2.45;;;;;;;19.42;nan;100480.94;5023130;28;20033;-74
2022/07/08 00:16:10;;;;;;;3.83;2.75;;;;;;;19.36;nan;100485.53;5024810;28;20310;-74
2022/07/08 00:18:36;;;;;;;6.30;2.45;;;;;;;19.36;nan;100479.41;5020386;28;20037;-74
2022/07/08 00:21:01;;;;;;;5.72;2.40;;;;;;;19.34;nan;100475.13;5023991;28;20594;-74
2022/07/08 00:23:26;;;;;;;3.97;2.53;;;;;;;19.37;nan;100433.75;5024933;28;20032;-75
2022/07/08 00:25:52;;;;;;;5.72;2.50;;;;;;;19.38;nan;100445.22;5009548;28;20040;-75
2022/07/08 00:28:17;;;;;;;3.70;2.10;;;;;;;19.40;nan;100472.44;5018515;28;20111;-75
2022/07/08 00:30:43;;;;;;;4.13;2.45;;;;;;;19.36;nan;100456.19;5023499;28;20033;-74
2022/07/08 00:33:08;;;;;;;5.45;2.50;;;;;;;19.36;nan;100445.50;5021564;28;20391;-74
2022/07/08 00:35:33;;;;;;;3.97;2.40;;;;;;;19.39;nan;100473.50;5028897;28;20033;-74
2022/07/08 00:37:59;;;;;;;3.67;2.80;;;;;;;19.38;nan;100469.25;5021745;28;20475;-75
2022/07/08 00:40:24;;;;;;;6.35;2.40;;;;;;;19.41;nan;100464.13;5024614;28;20034;-74
2022/07/08 00:42:50;;;;;;;7.22;2.30;;;;;;;19.42;nan;100462.25;5027746;28;20030;-75
2022/07/08 00:45:15;;;;;;;7.00;2.53;;;;;;;;;;5025061;28;20100;-75
2022/07/08 00:47:41;;;;;;;4.97;2.65;;;;;;;19.41;nan;100466.81;5026609;28;20033;-73
2022/07/08 00:50:07;;;;;;;4.05;2.20;;;;;;;19.41;nan;100464.13;5019151;28;20044;-74
2022/07/08 00:52:32;;;;;;;4.95;2.30;;;;;;;;;;5027724;28;20134;-75
2022/07/08 00:54:58;;;;;;;3.63;2.50;;;;;;;19.44;nan;100436.06;5022033;28;20491;-74
2022/07/08 00:57:25;;;;;;;5.07;2.40;;;;;;;19.38;nan;100447.88;5024151;28;20033;-74
2022/07/08 00:59:51;;;;;;;5.85;2.67;;;;;;;19.39;nan;100382.72;5023796;28;20030;-75
2022/07/08 01:02:16;;;;;;;2.58;2.28;;;;;;;19.40;nan;100433.19;5018793;28;20036;-74
2022/07/08 01:04:42;;;;;;;5.65;2.78;;;;;;;19.43;nan;100466.53;5022470;28;20038;-74
2022/07/08 01:07:07;;;;;;;4.45;2.42;;;;;;;19.36;nan;100431.34;5023193;28;20034;-75
2022/07/08 01:09:32;;;;;;;4.85;2.60;;;;;;;19.43;nan;100461.97;5028942;28;20041;-74
2022/07/08 01:11:59;;;;;;;9.23;2.65;;;;;;;19.43;nan;100509.25;5022062;28;20607;-74
2022/07/08 01:14:25;;;;;;;4.00;2.60;;;;;;;19.44;nan;100450.25;5022663;28;20056;-75
2022/07/08 01:16:50;;;;;;;5.28;2.60;;;;;;;19.45;nan;100443.00;5024017;28;20026;-75
2022/07/08 01:19:16;;;;;;;4.18;2.45;;;;;;;19.45;nan;100449.16;5020921;28;20034;-74
2022/07/08 01:21:41;;;;;;;5.63;2.92;;;;;;;;;;5021934;28;20446;-73
2022/07/08 01:24:06;;;;;;;7.50;2.80;;;;;;;;;;5018785;28;20482;-75
2022/07/08 01:26:32;;;;;;;2.73;2.50;;;;;;;19.38;nan;100451.34;5023299;28;20271;-75
2022/07/08 01:28:58;;;;;;;9.65;2.70;;;;;;;19.37;nan;100455.13;5023922;28;20259;-74
2022/07/08 01:31:23;;;;;;;3.70;2.78;;;;;;;19.30;nan;100455.44;5023009;28;20034;-75
2022/07/08 01:33:49;;;;;;;7.63;2.60;;;;;;;19.37;nan;100459.63;5022993;28;20061;-75
2022/07/08 01:36:14;;;;;;;5.07;2.25;;;;;;;19.25;nan;100490.19;5020394;28;20069;-75
2022/07/08 01:38:39;;;;;;;9.63;2.63;;;;;;;19.30;nan;100452.78;5024524;28;20041;-75
2022/07/08 01:41:05;;;;;;;4.70;2.70;;;;;;;;;;5023040;28;20068;-74
2022/07/08 01:43:30;;;;;;;5.20;2.77;;;;;;;19.24;nan;100439.75;5022192;28;20048;-74
2022/07/08 01:45:56;;;;;;;5.13;2.65;;;;;;;19.22;nan;100429.34;5024257;28;20075;-73
2022/07/08 01:48:21;;;;;;;6.97;2.58;;;;;;;19.19;nan;100413.88;5021378;28;20029;-74
2022/07/08 01:50:46;;;;;;;9.20;2.80;;;;;;;19.19;nan;100443.25;5026085;28;20041;-75
2022/07/08 01:53:12;;;;;;;6.20;3.22;;;;;;;;;;5021366;28;20116;-65
2022/07/08 01:55:38;;;;;;;7.97;2.83;;;;;;;19.10;nan;100436.94;5024445;28;20037;-65
2022/07/08 01:58:03;;;;;;;4.95;2.90;;;;;;;;;;5022761;28;20458;-66
2022/07/08 02:00:29;;;;;;;3.70;2.50;;;;;;;19.13;nan;100449.72;5025779;28;20030;-65
2022/07/08 02:02:54;;;;;;;6.70;3.17;;;;;;;19.16;nan;100456.38;5021417;28;20468;-65
2022/07/08 02:05:19;;;;;;;6.60;3.53;;;;;;;19.16;nan;100462.50;5023012;28;20041;-65
2022/07/08 02:07:45;;;;;;;5.72;2.97;;;;;;;;;;5020838;28;20030;-65
2022/07/08 02:10:11;;;;;;;9.27;2.90;;;;;;;19.09;nan;100521.53;5027777;28;20033;-65
2022/07/08 02:12:36;;;;;;;12.75;2.75;;;;;;;19.08;nan;100439.91;5022796;28;20276;-65
2022/07/08 02:15:05;;;;;;;6.40;2.63;;;;;;;19.08;nan;100503.13;5023652;28;20037;-65
2022/07/08 02:17:31;;;;;;;9.67;2.90;;;;;;;19.10;nan;100452.94;5026561;28;20022;-65
2022/07/08 02:19:57;;;;;;;7.45;2.88;;;;;;;19.07;nan;100456.97;5026461;28;20263;-65
2022/07/08 02:22:22;;;;;;;5.13;3.13;;;;;;;;;;5025441;28;20033;-65
2022/07/08 02:24:48;;;;;;;6.90;3.22;;;;;;;18.95;nan;100461.88;5025925;28;20503;-65
2022/07/08 02:27:13;;;;;;;6.45;3.00;;;;;;;18.90;nan;100454.72;5028808;28;20029;-66
2022/07/08 02:29:39;;;;;;;9.02;3.05;;;;;;;18.95;nan;100419.19;5025146;28;20026;-66
2022/07/08 02:32:05;;;;;;;5.50;2.90;;;;;;;18.90;nan;100420.03;5026451;28;20372;-65
2022/07/08 02:34:30;;;;;;;7.15;2.78;;;;;;;18.92;nan;100465.91;5028892;28;20034;-65
2022/07/08 02:36:55;;;;;;;2.97;2.67;;;;;;;18.91;nan;100442.16;5025858;28;20029;-64
2022/07/08 02:39:21;;;;;;;6.38;2.80;;;;;;;18.87;nan;100519.31;5024871;28;20068;-65
2022/07/08 02:41:47;;;;;;;12.70;2.95;;;;;;;18.75;nan;100462.81;5030142;28;20103;-65
2022/07/08 02:44:12;;;;;;;10.98;3.17;;;;;;;18.79;nan;100481.75;5029682;28;20057;-64
2022/07/08 02:46:38;;;;;;;7.30;3.00;;;;;;;18.77;nan;100447.34;5025923;28;20128;-66
2022/07/08 02:49:04;;;;;;;7.07;2.88;;;;;;;18.71;nan;100470.56;5026324;28;20045;-65
2022/07/08 02:51:29;;;;;;;7.65;3.15;;;;;;;18.70;nan;100474.31;5027746;28;20029;-65
2022/07/08 02:53:55;;;;;;;9.93;3.13;;;;;;;;;;5028071;28;20426;-65
2022/07/08 02:56:20;;;;;;;9.10;2.92;;;;;;;18.71;nan;100473.22;5027104;28;20033;-65
2022/07/08 02:58:45;;;;;;;6.30;3.03;;;;;;;18.54;nan;100462.13;5024921;28;20084;-67
2022/07/08 03:01:11;;;;;;;10.82;3.20;;;;;;;18.55;nan;100462.94;5027788;28;20068;-64
2022/07/08 03:03:36;;;;;;;6.60;3.15;;;;;;;18.58;nan;100465.03;5022607;28;20407;-66
2022/07/08 03:06:02;;;;;;;8.80;3.00;;;;;;;18.61;nan;100462.63;5024355;28;20040;-64
2022/07/08 03:08:28;;;;;;;9.23;3.03;;;;;;;18.41;nan;100431.56;5026709;28;20034;-64
2022/07/08 03:10:53;;;;;;;7.82;2.80;;;;;;;18.52;nan;100458.94;5024964;28;20502;-66
2022/07/08 03:13:19;;;;;;;3.90;2.83;;;;;;;18.38;nan;100375.31;5024182;28;20052;-65
2022/07/08 03:15:44;;;;;;;6.32;2.72;;;;;;;18.50;nan;100461.88;5022408;28;20028;-65
2022/07/08 03:18:09;;;;;;;7.20;3.17;;;;;;;18.46;nan;100463.53;5022953;28;20033;-66
2022/07/08 03:20:35;;;;;;;6.68;3.17;;;;;;;18.46;nan;100476.03;5030018;28;20030;-65
2022/07/08 03:23:00;;;;;;;8.52;3.15;;;;;;;;;;5023405;28;20341;-66
2022/07/08 03:25:26;;;;;;;10.20;3.10;;;;;;;18.48;nan;100444.56;5025988;28;20033;-65
2022/07/08 03:27:52;;;;;;;15.25;3.47;;;;;;;18.49;nan;100454.16;5026044;28;20426;-66
2022/07/08 03:30:17;;;;;;;10.82;3.15;;;;;;;18.52;nan;100466.16;5023207;28;20033;-65
2022/07/08 03:32:43;;;;;;;6.95;2.72;;;;;;;18.55;nan;100478.94;5019309;28;20046;-66
2022/07/08 03:35:09;;;;;;;10.93;3.05;;;;;;;18.52;nan;100420.81;5022978;28;20468;-64
2022/07/08 03:37:35;;;;;;;5.97;3.17;;;;;;;18.53;nan;100486.41;5026768;28;20026;-65
2022/07/08 03:42:46;;;;;;;9.13;3.55;;;;;;;18.39;nan;100503.03;5001417;28;20067;-65
2022/07/08 03:45:11;;;;;;;3.90;3.17;;;;;;;18.35;nan;100453.97;5022349;28;20131;-65
2022/07/08 03:47:37;;;;;;;8.23;2.60;;;;;;;;;;5020088;28;20630;-66
2022/07/08 03:50:02;;;;;;;10.05;3.00;;;;;;;;;;5025223;28;20030;-67
2022/07/08 03:52:27;;;;;;;10.25;2.75;;;;;;;;;;5020412;28;20033;-64
2022/07/08 03:54:53;;;;;;;9.70;2.80;;;;;;;18.40;nan;100451.28;5026576;28;20492;-66
2022/07/08 03:57:18;;;;;;;8.10;2.85;;;;;;;18.45;nan;100493.13;5030327;28;20318;-64
2022/07/08 03:59:43;;;;;;;4.85;2.60;;;;;;;;;;5025601;28;20116;-67
2022/07/08 04:02:09;;;;;;;6.13;3.10;;;;;;;18.55;nan;100478.94;5023932;28;20041;-64
2022/07/08 04:04:35;;;;;;;5.78;3.08;;;;;;;18.59;nan;100518.09;5027412;28;20701;-66
2022/07/08 04:07:00;;;;;;;10.70;3.00;;;;;;;18.53;nan;100492.53;5025949;28;20040;-65
2022/07/08 04:09:25;;;;;;;11.25;4.40;;;;;;;18.56;nan;100489.31;5020156;28;20029;-66
2022/07/08 04:11:52;;;;;;;10.85;3.10;;;;;;;18.55;nan;100505.59;5024009;28;20045;-67
2022/07/08 04:14:17;;;;;;;10.73;3.60;;;;;;;18.52;nan;100477.63;5026684;28;20053;-66
2022/07/08 04:16:42;;;;;;;10.65;3.20;;;;;;;18.56;nan;100493.88;5020463;28;20072;-66
2022/07/08 04:19:08;;;;;;;13.32;4.10;;;;;;;18.57;nan;100495.47;5018887;28;20117;-65
2022/07/08 04:21:33;;;;;;;11.40;3.78;;;;;;;;;;5025358;28;20030;-65
2022/07/08 04:24:00;;;;;;;15.37;3.10;;;;;;;18.61;nan;100478.63;5025190;28;20030;-65
2022/07/08 04:26:31;;;;;;;11.32;3.83;;;;;;;18.67;nan;100490.06;5016542;28;20350;-64
2022/07/08 04:28:57;;;;;;;12.07;4.18;;;;;;;18.79;nan;100489.75;5019599;28;20030;-65
2022/07/08 04:31:23;;;;;;;12.48;5.32;;;;;;;18.90;nan;100492.06;5019391;28;20385;-66
2022/07/08 04:33:48;;;;;;;12.77;3.80;;;;;;;19.01;nan;100476.78;5019619;28;20124;-66
2022/07/08 04:36:14;;;;;;;8.15;3.10;;;;;;;19.13;nan;100514.59;5016638;28;20368;-66
2022/07/08 04:38:39;;;;;;;12.43;3.33;;;;;;;;;;5020112;28;20107;-65
2022/07/08 04:41:05;;;;;;;16.00;4.30;;;;;;;19.30;nan;100500.84;5017866;28;20168;-66
2022/07/08 04:43:30;;;;;;;4.30;2.92;;;;;;;19.41;nan;100522.09;5025488;28;20623;-65
2022/07/08 04:45:55;;;;;;;8.65;3.15;;;;;;;;;;5018130;28;20049;-65
2022/07/08 04:48:21;;;;;;;5.03;2.70;;;;;;;19.59;nan;100537.44;5025417;28;20033;-65
2022/07/08 04:50:46;;;;;;;6.60;2.90;;;;;;;19.69;nan;100520.53;5025052;28;20045;-66
2022/07/08 04:53:12;;;;;;;11.90;3.00;;;;;;;19.77;nan;100531.38;5021746;28;20036;-65
2022/07/08 04:55:37;;;;;;;11.35;2.70;;;;;;;19.94;nan;100544.31;5027682;28;20057;-65
2022/07/08 04:58:04;;;;;;;4.38;2.67;;;;;;;20.05;nan;100534.31;5022794;28;20403;-66
2022/07/08 05:00:30;;;;;;;6.53;2.80;;;;;;;;;;5031243;28;20061;-64
2022/07/08 05:02:56;;;;;;;12.35;3.45;;;;;;;20.18;nan;100522.94;5022976;28;20067;-65
2022/07/08 05:05:21;;;;;;;4.22;2.40;;;;;;;20.33;nan;100515.81;5024031;28;20038;-65
2022/07/08 05:07:48;;;;;;;7.22;2.60;;;;;;;20.43;nan;100538.94;5026627;28;20120;-65
2022/07/08 05:10:15;;;;;;;4.18;2.70;;;;;;;20.47;nan;100542.63;5024974;28;20030;-65
2022/07/08 05:12:40;;;;;;;7.05;3.00;;;;;;;;;;5025966;28;20049;-66
2022/07/08 05:15:06;;;;;;;7.73;2.90;;;;;;;20.63;nan;100527.19;5027848;28;20030;-66
2022/07/08 05:17:31;;;;;;;7.38;2.42;;;;;;;20.66;nan;100567.53;5023613;28;20128;-66
2022/07/08 05:19:56;;;;;;;5.65;3.00;;;;;;;20.69;nan;100518.03;5003883;28;20125;-66
2022/07/08 05:22:22;;;;;;;8.02;3.13;;;;;;;;;;5024487;28;20032;-66
2022/07/08 05:24:47;;;;;;;12.18;3.50;;;;;;;20.83;nan;100540.31;5024024;28;20034;-66
2022/07/08 05:27:12;;;;;;;6.63;3.10;;;;;;;20.81;nan;100529.09;5029551;28;20060;-66
2022/07/08 05:29:38;;;;;;;4.78;2.80;;;;;;;20.90;nan;100547.94;5047080;28;20041;-65
2022/07/08 05:32:03;;;;;;;7.93;3.10;;;;;;;20.98;nan;100541.94;5042701;28;20038;-67
2022/07/08 05:34:29;;;;;;;8.95;3.08;;;;;;;20.98;nan;100529.34;5043782;28;20064;-64
2022/07/08 05:36:54;;;;;;;7.43;3.47;;;;;;;;;;5047599;28;20064;-67
2022/07/08 05:39:19;;;;;;;5.30;3.50;;;;;;;21.09;nan;100558.63;5045811;28;20034;-66
2022/07/08 05:41:45;;;;;;;9.63;3.30;;;;;;;21.16;nan;100546.47;5047607;28;20262;-67
2022/07/08 05:44:11;;;;;;;5.95;2.88;;;;;;;21.18;nan;100535.47;5047808;28;20045;-66
2022/07/08 05:46:36;;;;;;;12.02;3.30;;;;;;;21.34;nan;100557.47;5041415;28;20030;-76
2022/07/08 05:49:02;;;;;;;5.97;3.10;;;;;;;21.37;nan;100562.22;5048849;28;20110;-74
2022/07/08 05:51:27;;;;;;;5.47;2.80;;;;;;;21.39;nan;100573.44;5052567;28;20036;-75
2022/07/08 05:53:55;;;;;;;6.35;2.72;;;;;;;21.45;nan;100593.72;5051146;28;20052;-76
2022/07/08 05:56:21;;;;;;;6.32;2.90;;;;;;;21.51;nan;100570.34;5051784;28;20021;-74
2022/07/08 05:58:46;;;;;;;8.63;2.63;;;;;;;21.57;nan;100575.31;5053664;28;20040;-74
2022/07/08 06:01:12;;;;;;;7.15;2.47;;;;;;;21.71;nan;100583.38;5051009;28;20117;-76
2022/07/08 06:03:37;;;;;;;13.50;2.80;;;;;;;21.82;nan;100571.38;5046376;28;20093;-75
2022/07/08 06:06:02;;;;;;;6.60;2.58;;;;;;;;;;5035897;28;20475;-74
2022/07/08 06:08:28;;;;;;;5.50;2.60;;;;;;;21.81;nan;100558.28;5043269;28;20076;-74
2022/07/08 06:10:54;;;;;;;6.35;2.10;;;;;;;21.85;nan;100557.38;5038235;28;20096;-77
2022/07/08 06:13:19;;;;;;;7.25;2.05;;;;;;;21.94;nan;100568.22;5045615;28;20073;-76
2022/07/08 06:15:44;;;;;;;12.52;2.33;;;;;;;21.96;nan;100566.03;5044297;28;20095;-75
2022/07/08 06:18:10;;;;;;;9.18;1.90;;;;;;;22.02;nan;100580.94;5044760;28;20036;-74
2022/07/08 06:20:36;;;;;;;6.38;1.70;;;;;;;;;;5040947;28;20040;-80
2022/07/08 06:23:01;;;;;;;7.10;2.10;;;;;;;22.18;nan;100551.94;5044107;28;20137;-73
2022/07/08 06:25:27;;;;;;;6.00;1.60;;;;;;;22.33;nan;100571.53;5044330;28;20616;-75
2022/07/08 06:27:52;;;;;;;1.88;1.42;;;;;;;22.39;nan;100579.19;5044001;28;20026;-75
2022/07/08 06:30:17;;;;;;;4.70;1.88;;;;;;;;;;5042451;28;20479;-74
2022/07/08 06:32:43;;;;;;;2.00;1.70;;;;;;;22.50;nan;100580.53;5037253;28;20041;-75
2022/07/08 06:35:08;;;;;;;5.30;1.52;;;;;;;;;;5036104;28;20387;-74
2022/07/08 06:37:33;;;;;;;4.35;1.98;;;;;;;22.49;nan;100557.50;5037041;28;20553;-76
2022/07/08 06:39:59;;;;;;;6.03;1.55;;;;;;;22.61;nan;100583.81;5030040;28;21138;-76
2022/07/08 06:42:25;;;;;;;3.80;1.50;;;;;;;22.62;nan;100577.34;5024431;28;20056;-75
2022/07/08 06:44:51;;;;;;;11.65;1.50;;;;;;;22.61;nan;100586.50;5033457;28;20088;-72
2022/07/08 06:47:16;;;;;;;7.28;1.50;;;;;;;22.59;nan;100591.38;5024527;28;20032;-75
2022/07/08 06:49:41;;;;;;;7.57;1.73;;;;;;;;;;5029915;28;20048;-75
2022/07/08 06:52:07;;;;;;;5.93;1.90;;;;;;;22.39;nan;100555.03;5023762;28;20442;-65
2022/07/08 06:54:35;;;;;;;6.80;2.00;;;;;;;22.40;nan;100604.13;5024969;28;20034;-65
2022/07/08 06:57:02;;;;;;;4.07;1.73;;;;;;;22.37;nan;100589.41;5025982;28;20468;-67
2022/07/08 06:59:28;;;;;;;4.95;1.50;;;;;;;22.45;nan;100567.22;5028352;28;20037;-66
2022/07/08 07:01:54;;;;;;;5.00;1.80;;;;;;;22.40;nan;100577.28;5027032;28;20084;-65
2022/07/08 07:04:20;;;;;;;5.60;1.80;;;;;;;22.37;nan;100567.94;5031358;28;20029;-67
2022/07/08 07:06:46;;;;;;;5.75;1.80;;;;;;;22.49;nan;100567.44;5024591;28;20072;-66
2022/07/08 07:09:12;;;;;;;9.13;1.88;;;;;;;22.53;nan;100563.06;5027517;28;20266;-66
2022/07/08 07:11:38;;;;;;;2.08;1.75;;;;;;;;;;5030804;28;20129;-67
2022/07/08 07:14:04;;;;;;;6.65;1.95;;;;;;;22.62;nan;100512.94;5022132;28;20399;-67
2022/07/08 07:16:29;;;;;;;7.75;1.92;;;;;;;22.62;nan;100577.34;5025257;28;20025;-66
2022/07/08 07:18:55;;;;;;;5.53;1.60;;;;;;;22.60;nan;100584.94;5027483;28;20475;-66
2022/07/08 07:21:20;;;;;;;5.22;1.95;;;;;;;;;;5025266;28;20034;-66
2022/07/08 07:23:45;;;;;;;5.73;1.83;;;;;;;22.68;nan;100510.94;5029076;28;20056;-67
2022/07/08 07:26:11;;;;;;;4.70;2.20;;;;;;;22.70;nan;100571.28;5024529;28;20330;-66
2022/07/08 07:28:36;;;;;;;4.97;1.67;;;;;;;22.71;nan;100526.44;5024067;28;20029;-66
2022/07/08 07:31:02;;;;;;;5.32;2.20;;;;;;;;;;5024055;28;20400;-66
2022/07/08 07:33:27;;;;;;;6.10;2.00;;;;;;;23.00;nan;100590.50;5021267;28;20033;-66
2022/07/08 07:35:53;;;;;;;6.28;2.50;;;;;;;22.99;nan;100575.50;5022993;28;20334;-66
2022/07/08 07:38:18;;;;;;;10.45;2.30;;;;;;;23.05;nan;100563.53;5025650;28;20031;-65
2022/07/08 07:40:43;;;;;;;6.53;2.15;;;;;;;23.01;nan;100565.25;5020985;28;20510;-67
2022/07/08 07:43:09;;;;;;;6.00;2.05;;;;;;;23.09;nan;100569.88;5031370;28;20048;-68
2022/07/08 07:45:34;;;;;;;10.77;2.17;;;;;;;23.12;nan;100601.50;5027318;28;20041;-75
2022/07/08 07:48:00;;;;;;;12.13;2.80;;;;;;;23.21;nan;100557.81;5026860;28;20028;-74
2022/07/08 07:50:26;;;;;;;5.00;2.53;;;;;;;23.11;nan;100575.75;5019413;28;20065;-75
2022/07/08 07:52:52;;;;;;;5.03;2.53;;;;;;;23.17;nan;100559.50;5023428;28;20061;-75
2022/07/08 07:55:18;;;;;;;6.35;2.30;;;;;;;23.28;nan;100567.03;5027219;28;20028;-74
2022/07/08 07:57:46;;;;;;;4.72;2.17;;;;;;;23.31;nan;100675.78;5028742;28;20021;-74
2022/07/08 08:00:13;;;;;;;8.82;2.40;;;;;;;23.39;nan;100556.81;5027804;28;20480;-75
2022/07/08 08:02:39;;;;;;;7.65;2.20;;;;;;;23.40;nan;100542.28;5032989;28;20120;-73
2022/07/08 08:05:05;;;;;;;5.72;2.30;;;;;;;23.42;nan;100548.16;5027383;28;20034;-75
2022/07/08 08:07:31;;;;;;;5.07;1.98;;;;;;;23.46;nan;100596.69;5024859;28;20021;-77
2022/07/08 08:09:56;;;;;;;3.13;1.88;;;;;;;23.43;nan;100548.94;5025420;28;20030;-74
2022/07/08 08:12:21;;;;;;;5.38;2.22;;;;;;;23.56;nan;100601.84;5031665;28;20045;-75
2022/07/08 08:14:47;;;;;;;7.05;2.20;;;;;;;23.55;nan;100549.94;5026735;28;20124;-75
2022/07/08 08:17:12;;;;;;;6.47;2.10;;;;;;;23.52;nan;100555.16;5028364;28;20037;-73
2022/07/08 08:19:37;;;;;;;5.22;2.25;;;;;;;23.59;nan;100694.50;5027706;28;20388;-75
2022/07/08 08:22:03;;;;;;;5.75;2.30;;;;;;;23.65;nan;100562.31;5026323;28;20087;-75
2022/07/08 08:24:28;;;;;;;5.28;2.60;;;;;;;;;;5017395;28;20033;-70
2022/07/08 08:26:54;;;;;;;5.57;2.20;;;;;;;23.80;nan;100592.63;5025329;28;20082;-66
2022/07/08 08:29:19;;;;;;;3.38;2.20;;;;;;;;;;5015974;28;20111;-66
2022/07/08 08:31:44;;;;;;;7.07;2.33;;;;;;;23.90;nan;100568.97;5025931;28;20392;-67
2022/07/08 08:34:10;;;;;;;4.90;2.40;;;;;;;23.98;nan;100554.75;5026756;28;20116;-65
2022/07/08 08:36:35;;;;;;;6.97;2.42;;;;;;;24.01;nan;100541.78;5021096;28;20130;-68
2022/07/08 08:39:01;;;;;;;5.80;2.60;;;;;;;24.13;nan;100569.66;5026130;28;20480;-66
2022/07/08 08:41:27;;;;;;;4.15;2.30;;;;;;;24.10;nan;100526.47;5025128;28;20488;-66
2022/07/08 08:43:53;;;;;;;8.93;3.30;;;;;;;24.13;nan;100606.56;5021789;28;20052;-73
2022/07/08 08:46:23;;;;;;;6.18;2.85;;;;;;;24.14;nan;100555.13;5026576;28;20029;-74
2022/07/08 08:48:49;;;;;;;5.93;3.40;;;;;;;24.24;nan;100554.03;5022987;28;20037;-74
2022/07/08 08:51:20;;;;;;;5.70;2.67;;;;;;;24.26;nan;100567.19;5024281;28;20025;-75
2022/07/08 08:53:46;;;;;;;9.27;3.25;;;;;;;24.31;nan;100542.81;5020150;28;20026;-74
2022/07/08 08:56:14;;;;;;;8.20;3.58;;;;;;;24.33;nan;100560.25;5027773;28;20113;-74
2022/07/08 08:58:41;;;;;;;7.20;2.88;;;;;;;24.38;nan;100551.22;5024892;28;20042;-66
2022/07/08 09:01:07;;;;;;;4.78;2.72;;;;;;;24.47;nan;100554.75;5026880;28;20037;-65
2022/07/08 09:03:33;;;;;;;5.30;2.47;;;;;;;24.62;nan;100583.91;5024826;28;20113;-68
2022/07/08 09:05:59;;;;;;;8.18;2.53;;;;;;;24.62;nan;100542.75;5025527;28;20072;-66
2022/07/08 09:08:25;;;;;;;5.68;2.78;;;;;;;24.60;nan;100593.41;5018852;28;20057;-66
2022/07/08 09:10:50;;;;;;;7.07;2.67;;;;;;;24.73;nan;100540.50;5014808;28;20451;-75
2022/07/08 09:13:16;;;;;;;10.63;2.28;;;;;;;24.64;nan;100540.53;5020704;28;20526;-75
2022/07/08 09:15:46;;;;;;;7.22;2.67;;;;;;;24.82;nan;100569.03;5023938;28;20029;-75
2022/07/08 09:18:16;;;;;;;6.63;2.40;;;;;;;24.83;nan;100548.28;5022800;28;20030;-75
2022/07/08 09:20:50;;;;;;;10.65;2.40;;;;;;;24.87;nan;100560.00;5020356;28;20041;-75
2022/07/08 09:23:24;;;;;;;9.18;2.65;;;;;;;24.98;nan;100552.41;5021711;28;20060;-75
2022/07/08 09:25:55;;;;;;;5.90;2.40;;;;;;;25.09;nan;100550.94;5019617;28;20499;-75
2022/07/08 09:28:34;;;;;;;3.88;2.40;;;;;;;25.10;nan;100562.53;5026623;28;20077;-74
2022/07/08 09:31:02;;;;;;;4.65;2.05;;;;;;;25.15;nan;100554.28;5021967;28;20034;-74
2022/07/08 09:33:27;;;;;;;23.63;3.05;;;;;;;25.30;nan;100609.63;5023088;28;20033;-75
2022/07/08 09:35:55;;;;;;;2.50;1.98;;;;;;;25.35;nan;100566.31;5020632;28;20501;-74
2022/07/08 09:38:22;;;;;;;15.80;2.35;;;;;;;25.50;nan;100562.31;5031506;28;20056;-74
2022/07/08 09:40:59;;;;;;;6.10;2.30;;;;;;;25.58;nan;100559.59;5027509;28;20058;-74
2022/07/08 09:43:26;;;;;;;5.97;2.10;;;;;;;25.67;nan;100546.91;5030576;28;20025;-74
2022/07/08 09:45:52;;;;;;;4.05;1.88;;;;;;;25.74;nan;100545.59;5027479;28;20034;-75
2022/07/08 09:48:18;;;;;;;6.03;2.15;;;;;;;25.79;nan;100532.72;5021949;28;20053;-74
2022/07/08 09:50:48;;;;;;;5.70;1.90;;;;;;;25.85;nan;100536.03;5024420;28;20155;-75
2022/07/08 09:53:18;;;;;;;5.85;2.42;;;;;;;25.92;nan;100541.72;5021696;28;20030;-75
2022/07/08 09:55:54;;;;;;;5.70;1.90;;;;;;;25.96;nan;100494.09;5025421;28;20391;-74
2022/07/08 09:58:21;;;;;;;5.65;2.28;;;;;;;25.92;nan;100544.44;5023971;28;20333;-74
2022/07/08 10:00:49;;;;;;;6.43;2.20;;;;;;;25.98;nan;100563.91;5024194;28;20034;-75
2022/07/08 10:03:15;;;;;;;7.50;2.25;;;;;;;26.05;nan;100478.66;5027721;28;20030;-75
2022/07/08 10:05:42;;;;;;;6.57;1.90;;;;;;;26.14;nan;100537.97;5028089;28;20470;-75
2022/07/08 10:08:09;;;;;;;9.43;2.28;;;;;;;26.27;nan;100479.47;5030676;28;20400;-74
2022/07/08 10:10:35;;;;;;;6.90;2.22;;;;;;;26.31;nan;100508.19;5006141;28;20038;-74
2022/07/08 10:13:01;;;;;;;5.03;2.10;;;;;;;26.38;nan;100517.66;5022442;28;20077;-74
2022/07/08 10:15:28;;;;;;;5.38;2.20;;;;;;;26.45;nan;100480.13;5027510;28;20115;-75
2022/07/08 10:17:57;;;;;;;2.97;2.00;;;;;;;26.50;nan;100532.00;5029095;28;20037;-75
2022/07/08 10:20:24;;;;;;;;;;;;;;;26.59;nan;100539.28;5028117;28;20041;-74
2022/07/08 10:22:56;;;;;;;2.83;2.00;;;;;;;26.67;nan;100495.22;5025558;28;19913;-75
2022/07/08 10:25:25;;;;;;;2.33;1.77;;;;;;;26.65;nan;100513.66;5032705;28;20033;-75
2022/07/08 10:27:50;;;;;;;4.07;1.80;;;;;;;26.80;nan;100509.56;5028462;28;20030;-75
2022/07/08 10:30:18;;;;;;;4.50;2.15;;;;;;;27.00;nan;100524.16;5027591;28;20160;-76
2022/07/08 10:32:52;;;;;;;6.13;2.10;;;;;;;;;;5025063;28;20063;-73
2022/07/08 10:35:20;;;;;;;8.13;2.00;;;;;;;27.00;nan;100507.94;5028488;28;20029;-75
2022/07/08 10:37:46;;;;;;;3.63;1.80;;;;;;;27.01;nan;100525.72;5028791;28;20037;-75
2022/07/08 10:40:11;;;;;;;5.70;1.77;;;;;;;26.98;nan;100524.47;5019843;28;20042;-75
2022/07/08 10:42:37;;;;;;;5.18;1.73;;;;;;;;;;5011390;28;20037;-74
2022/07/08 10:45:02;;;;;;;3.73;2.00;;;;;;;26.95;nan;100519.75;5028356;28;20076;-73
2022/07/08 10:47:28;;;;;;;5.00;2.13;;;;;;;27.07;nan;100513.59;5027485;28;20313;-74
2022/07/08 10:50:04;;;;;;;5.97;1.98;;;;;;;27.11;nan;100512.59;5023940;28;20100;-75
2022/07/08 10:52:39;;;;;;;4.57;1.80;;;;;;;27.10;nan;100470.47;5025808;28;20120;-72
2022/07/08 10:55:10;;;;;;;6.10;1.85;;;;;;;27.01;nan;100490.59;5030794;28;20085;-74
2022/07/08 10:57:36;;;;;;;6.00;2.10;;;;;;;27.12;nan;100497.94;5030731;28;20038;-74
2022/07/08 11:00:13;;;;;;;7.68;2.17;;;;;;;27.23;nan;100484.84;5027169;28;20136;-75
2022/07/08 11:02:43;;;;;;;3.08;1.60;;;;;;;27.27;nan;100510.09;5030740;28;20044;-74
2022/07/08 11:05:38;;;;;;;9.30;2.10;;;;;;;27.34;nan;100496.81;5027101;28;20053;-74
2022/07/08 11:08:23;;;;;;;8.52;2.00;;;;;;;27.44;nan;100484.75;5026103;28;20041;-75
2022/07/08 11:10:55;;;;;;;3.20;1.98;;;;;;;27.54;nan;100491.63;5022659;28;20033;-75
2022/07/08 11:13:22;;;;;;;3.70;1.83;;;;;;;27.58;nan;100489.81;5025099;28;20369;-75
2022/07/08 11:15:48;;;;;;;3.40;1.80;;;;;;;27.63;nan;100483.41;5024104;28;20435;-75
2022/07/08 11:18:24;;;;;;;6.70;1.80;;;;;;;27.62;nan;100517.78;5026224;28;20038;-65
2022/07/08 11:20:56;;;;;;;3.00;1.60;;;;;;;27.64;nan;100502.00;5022762;28;20034;-66
2022/07/08 11:23:22;;;;;;;9.68;2.42;;;;;;;27.77;nan;100476.53;5016455;28;20037;-66
2022/07/08 11:25:48;;;;;;;10.35;3.50;;;;;;;27.90;nan;100484.69;5025689;28;20026;-73
2022/07/08 11:28:20;;;;;;;11.23;4.00;;;;;;;27.86;nan;100513.53;5021660;28;20063;-73
2022/07/08 11:30:45;;;;;;;8.27;4.65;;;;;;;27.95;nan;100479.81;5037870;28;20496;-74
2022/07/08 11:33:11;;;;;;;6.15;3.75;;;;;;;28.00;nan;100489.63;5023092;28;20068;-73
2022/07/08 11:35:38;;;;;;;9.00;5.60;;;;;;;28.09;nan;100471.34;5024098;28;20442;-72
2022/07/08 11:38:04;;;;;;;11.05;5.47;;;;;;;28.12;nan;100478.00;5023501;28;20030;-73
2022/07/08 11:40:40;;;;;;;5.88;4.80;;;;;;;28.18;nan;100482.81;5024389;28;20076;-75
2022/07/08 11:43:05;;;;;;;10.63;5.55;;;;;;;28.31;nan;100463.84;5022535;28;20479;-74
2022/07/08 11:45:31;;;;;;;5.38;3.67;;;;;;;28.39;nan;100416.84;5017509;28;20088;-73
2022/07/08 11:48:06;;;;;;;6.55;3.20;;;;;;;28.41;nan;100447.09;5028997;28;20483;-73
2022/07/08 11:50:32;;;;;;;5.10;4.03;;;;;;;28.49;nan;100459.72;5021576;28;20041;-72
2022/07/08 11:52:57;;;;;;;5.63;3.35;;;;;;;28.70;nan;100453.31;5029929;28;20549;-74
2022/07/08 11:55:22;;;;;;;10.18;3.60;;;;;;;28.76;nan;100463.56;5023841;28;20037;-72
2022/07/08 11:57:48;;;;;;;10.57;5.45;;;;;;;28.71;nan;100454.88;5021599;28;20440;-74